sensor_id;sensor_type;location;lat;lon;timestamp;temperature;humidity
7784;DHT22;19359;51.402;6.778;2023-02-04T00:00:08;8.00;1.00
7784;DHT22;19359;51.402;6.778;2023-02-04T00:05:04;7.90;1.00
7784;DHT22;19359;51.402;6.778;2023-02-04T00:07:31;8.00;1.00
7784;DHT22;19359;51.402;6.778;2023-02-04T00:09:58;8.10;1.00
7784;DHT22;19359;51.402;6.778;2023-02-04T00:12:26;8.00;1.00
7784;DHT22;19359;51.402;6.778;2023-02-04T00:17:20;7.90;1.00
7784;DHT22;19359;51.402;6.778;2023-02-04T00:19:46;7.90;1.00
7784;DHT22;19359;51.402;6.778;2023-02-04T00:22:13;8.10;1.00
7784;DHT22;19359;51.402;6.778;2023-02-04T00:24:40;8.00;1.00
7784;DHT22;19359;51.402;6.778;2023-02-04T00:27:07;7.80;1.00
7784;DHT22;19359;51.402;6.778;2023-02-04T00:29:35;7.80;1.00
7784;DHT22;19359;51.402;6.778;2023-02-04T00:32:02;7.90;1.00
7784;DHT22;19359;51.402;6.778;2023-02-04T00:34:29;7.90;1.00
7784;DHT22;19359;51.402;6.778;2023-02-04T00:36:56;8.00;1.00
7784;DHT22;19359;51.402;6.778;2023-02-04T00:39:23;8.00;1.00
7784;DHT22;19359;51.402;6.778;2023-02-04T00:41:49;7.90;1.00
7784;DHT22;19359;51.402;6.778;2023-02-04T00:44:16;8.00;1.00
7784;DHT22;19359;51.402;6.778;2023-02-04T00:46:44;7.90;1.00
7784;DHT22;19359;51.402;6.778;2023-02-04T00:49:13;8.00;1.00
7784;DHT22;19359;51.402;6.778;2023-02-04T00:51:40;7.90;1.00
7784;DHT22;19359;51.402;6.778;2023-02-04T00:54:11;8.20;1.00
7784;DHT22;19359;51.402;6.778;2023-02-04T00:56:38;7.70;1.00
7784;DHT22;19359;51.402;6.778;2023-02-04T00:59:04;7.80;1.00
7784;DHT22;19359;51.402;6.778;2023-02-04T01:01:31;7.80;1.00
7784;DHT22;19359;51.402;6.778;2023-02-04T01:03:59;7.90;1.00
7784;DHT22;19359;51.402;6.778;2023-02-04T01:06:26;7.80;1.00
7784;DHT22;19359;51.402;6.778;2023-02-04T01:08:53;7.80;1.00
7784;DHT22;19359;51.402;6.778;2023-02-04T01:11:19;7.90;1.00
7784;DHT22;19359;51.402;6.778;2023-02-04T01:13:46;7.50;1.00
7784;DHT22;19359;51.402;6.778;2023-02-04T01:16:13;7.70;1.00
7784;DHT22;19359;51.402;6.778;2023-02-04T01:18:40;7.80;1.00
7784;DHT22;19359;51.402;6.778;2023-02-04T01:21:08;7.70;1.00
7784;DHT22;19359;51.402;6.778;2023-02-04T01:23:35;7.70;1.00
7784;DHT22;19359;51.402;6.778;2023-02-04T01:26:02;8.20;1.00
7784;DHT22;19359;51.402;6.778;2023-02-04T01:28:29;7.50;1.00
7784;DHT22;19359;51.402;6.778;2023-02-04T01:30:56;7.80;1.00
7784;DHT22;19359;51.402;6.778;2023-02-04T01:33:22;7.50;1.00
7784;DHT22;19359;51.402;6.778;2023-02-04T01:35:49;7.70;4.70
7784;DHT22;19359;51.402;6.778;2023-02-04T01:38:17;7.60;6.60
7784;DHT22;19359;51.402;6.778;2023-02-04T01:40:44;7.70;1.00
7784;DHT22;19359;51.402;6.778;2023-02-04T01:43:11;7.50;1.00
7784;DHT22;19359;51.402;6.778;2023-02-04T01:45:38;7.70;1.00
7784;DHT22;19359;51.402;6.778;2023-02-04T01:48:05;7.50;1.00
7784;DHT22;19359;51.402;6.778;2023-02-04T01:50:32;7.40;1.00
7784;DHT22;19359;51.402;6.778;2023-02-04T01:53:01;7.60;1.00
7784;DHT22;19359;51.402;6.778;2023-02-04T01:55:31;7.70;1.00
7784;DHT22;19359;51.402;6.778;2023-02-04T01:57:58;7.50;1.00
7784;DHT22;19359;51.402;6.778;2023-02-04T02:00:27;7.50;1.00
7784;DHT22;19359;51.402;6.778;2023-02-04T02:02:55;8.80;1.00
7784;DHT22;19359;51.402;6.778;2023-02-04T02:07:52;7.60;1.00
7784;DHT22;19359;51.402;6.778;2023-02-04T02:10:20;7.70;1.00
7784;DHT22;19359;51.402;6.778;2023-02-04T02:12:49;7.70;1.00
7784;DHT22;19359;51.402;6.778;2023-02-04T02:15:16;7.70;1.00
7784;DHT22;19359;51.402;6.778;2023-02-04T02:17:44;7.70;1.00
7784;DHT22;19359;51.402;6.778;2023-02-04T02:20:13;7.70;1.00
7784;DHT22;19359;51.402;6.778;2023-02-04T02:22:46;7.60;1.00
7784;DHT22;19359;51.402;6.778;2023-02-04T02:25:16;7.50;1.00
7784;DHT22;19359;51.402;6.778;2023-02-04T02:27:43;7.70;1.00
7784;DHT22;19359;51.402;6.778;2023-02-04T02:30:11;7.70;1.00
7784;DHT22;19359;51.402;6.778;2023-02-04T02:32:41;7.60;1.00
7784;DHT22;19359;51.402;6.778;2023-02-04T02:35:08;7.60;1.00
7784;DHT22;19359;51.402;6.778;2023-02-04T02:37:35;7.50;1.00
7784;DHT22;19359;51.402;6.778;2023-02-04T02:42:31;7.80;8.60
7784;DHT22;19359;51.402;6.778;2023-02-04T02:44:58;7.60;1.00
7784;DHT22;19359;51.402;6.778;2023-02-04T02:47:25;7.90;1.00
7784;DHT22;19359;51.402;6.778;2023-02-04T02:49:53;7.60;3.00
7784;DHT22;19359;51.402;6.778;2023-02-04T02:52:20;7.60;5.10
7784;DHT22;19359;51.402;6.778;2023-02-04T02:57:17;7.50;1.00
7784;DHT22;19359;51.402;6.778;2023-02-04T03:04:44;7.50;1.00
7784;DHT22;19359;51.402;6.778;2023-02-04T03:07:14;7.50;1.00
7784;DHT22;19359;51.402;6.778;2023-02-04T03:09:41;7.50;1.00
7784;DHT22;19359;51.402;6.778;2023-02-04T03:12:08;7.40;1.00
7784;DHT22;19359;51.402;6.778;2023-02-04T03:14:34;7.40;1.00
7784;DHT22;19359;51.402;6.778;2023-02-04T03:17:06;7.30;1.00
7784;DHT22;19359;51.402;6.778;2023-02-04T03:24:30;7.50;1.00
7784;DHT22;19359;51.402;6.778;2023-02-04T03:26:57;7.30;1.00
7784;DHT22;19359;51.402;6.778;2023-02-04T03:29:24;7.30;1.00
7784;DHT22;19359;51.402;6.778;2023-02-04T03:31:51;7.90;3.10
7784;DHT22;19359;51.402;6.778;2023-02-04T03:34:21;7.40;1.00
7784;DHT22;19359;51.402;6.778;2023-02-04T03:36:48;7.30;1.00
7784;DHT22;19359;51.402;6.778;2023-02-04T03:39:14;7.20;13.30
7784;DHT22;19359;51.402;6.778;2023-02-04T03:41:41;7.10;5.40
7784;DHT22;19359;51.402;6.778;2023-02-04T03:44:08;7.20;1.00
7784;DHT22;19359;51.402;6.778;2023-02-04T03:46:35;7.20;10.40
7784;DHT22;19359;51.402;6.778;2023-02-04T03:51:30;7.20;15.20
7784;DHT22;19359;51.402;6.778;2023-02-04T03:53:56;7.10;15.30
7784;DHT22;19359;51.402;6.778;2023-02-04T03:56:23;7.20;12.00
7784;DHT22;19359;51.402;6.778;2023-02-04T03:58:50;7.20;11.40
7784;DHT22;19359;51.402;6.778;2023-02-04T04:03:44;7.20;94.80
7784;DHT22;19359;51.402;6.778;2023-02-04T04:06:10;7.00;95.90
7784;DHT22;19359;51.402;6.778;2023-02-04T04:08:38;7.60;95.80
7784;DHT22;19359;51.402;6.778;2023-02-04T04:11:05;7.10;95.70
7784;DHT22;19359;51.402;6.778;2023-02-04T04:13:32;7.10;97.10
7784;DHT22;19359;51.402;6.778;2023-02-04T04:15:59;6.90;97.90
7784;DHT22;19359;51.402;6.778;2023-02-04T04:18:27;7.00;98.80
7784;DHT22;19359;51.402;6.778;2023-02-04T04:20:54;7.10;99.80
7784;DHT22;19359;51.402;6.778;2023-02-04T04:23:21;7.10;91.90
7784;DHT22;19359;51.402;6.778;2023-02-04T04:25:49;7.00;99.90
7784;DHT22;19359;51.402;6.778;2023-02-04T04:28:16;7.20;99.90
7784;DHT22;19359;51.402;6.778;2023-02-04T04:30:43;7.00;95.30
7784;DHT22;19359;51.402;6.778;2023-02-04T04:33:09;6.90;99.90
7784;DHT22;19359;51.402;6.778;2023-02-04T04:35:36;7.10;99.90
7784;DHT22;19359;51.402;6.778;2023-02-04T04:38:03;6.90;99.50
7784;DHT22;19359;51.402;6.778;2023-02-04T04:40:30;6.90;99.90
7784;DHT22;19359;51.402;6.778;2023-02-04T04:42:58;6.80;99.90
7784;DHT22;19359;51.402;6.778;2023-02-04T04:45:25;6.90;99.90
7784;DHT22;19359;51.402;6.778;2023-02-04T04:47:51;6.90;99.90
7784;DHT22;19359;51.402;6.778;2023-02-04T04:50:18;7.00;99.90
7784;DHT22;19359;51.402;6.778;2023-02-04T04:52:45;6.70;99.90
7784;DHT22;19359;51.402;6.778;2023-02-04T04:55:12;6.90;99.90
7784;DHT22;19359;51.402;6.778;2023-02-04T04:57:39;6.80;99.90
7784;DHT22;19359;51.402;6.778;2023-02-04T05:00:09;6.80;99.90
7784;DHT22;19359;51.402;6.778;2023-02-04T05:02:37;6.80;99.90
7784;DHT22;19359;51.402;6.778;2023-02-04T05:05:04;6.90;99.90
7784;DHT22;19359;51.402;6.778;2023-02-04T05:07:31;6.70;99.90
7784;DHT22;19359;51.402;6.778;2023-02-04T05:09:57;6.80;99.90
7784;DHT22;19359;51.402;6.778;2023-02-04T05:12:24;6.80;99.90
7784;DHT22;19359;51.402;6.778;2023-02-04T05:14:51;6.80;99.90
7784;DHT22;19359;51.402;6.778;2023-02-04T05:17:19;6.70;99.90
7784;DHT22;19359;51.402;6.778;2023-02-04T05:19:46;6.60;99.90
7784;DHT22;19359;51.402;6.778;2023-02-04T05:22:12;6.60;99.90
7784;DHT22;19359;51.402;6.778;2023-02-04T05:24:39;6.70;99.90
7784;DHT22;19359;51.402;6.778;2023-02-04T05:27:06;6.60;99.90
7784;DHT22;19359;51.402;6.778;2023-02-04T05:29:32;6.70;99.90
7784;DHT22;19359;51.402;6.778;2023-02-04T05:34:28;6.60;99.90
7784;DHT22;19359;51.402;6.778;2023-02-04T05:36:54;6.70;99.90
7784;DHT22;19359;51.402;6.778;2023-02-04T05:39:21;6.70;99.90
7784;DHT22;19359;51.402;6.778;2023-02-04T05:41:48;6.60;99.90
7784;DHT22;19359;51.402;6.778;2023-02-04T05:44:15;6.60;99.90
7784;DHT22;19359;51.402;6.778;2023-02-04T05:46:41;6.70;99.90
7784;DHT22;19359;51.402;6.778;2023-02-04T05:49:08;6.70;99.90
7784;DHT22;19359;51.402;6.778;2023-02-04T05:51:36;6.60;99.90
7784;DHT22;19359;51.402;6.778;2023-02-04T05:54:03;6.70;99.90
7784;DHT22;19359;51.402;6.778;2023-02-04T05:56:30;6.70;99.90
7784;DHT22;19359;51.402;6.778;2023-02-04T05:58:56;6.90;99.90
7784;DHT22;19359;51.402;6.778;2023-02-04T06:01:23;6.60;99.90
7784;DHT22;19359;51.402;6.778;2023-02-04T06:03:50;6.70;99.90
7784;DHT22;19359;51.402;6.778;2023-02-04T06:08:45;6.80;99.90
7784;DHT22;19359;51.402;6.778;2023-02-04T06:11:12;6.90;99.90
7784;DHT22;19359;51.402;6.778;2023-02-04T06:13:38;6.80;99.90
7784;DHT22;19359;51.402;6.778;2023-02-04T06:16:06;6.80;99.90
7784;DHT22;19359;51.402;6.778;2023-02-04T06:18:33;6.70;99.90
7784;DHT22;19359;51.402;6.778;2023-02-04T06:20:59;6.80;99.90
7784;DHT22;19359;51.402;6.778;2023-02-04T06:23:29;6.70;99.90
7784;DHT22;19359;51.402;6.778;2023-02-04T06:25:57;6.70;99.90
7784;DHT22;19359;51.402;6.778;2023-02-04T06:28:23;6.70;99.90
7784;DHT22;19359;51.402;6.778;2023-02-04T06:30:50;6.60;99.90
7784;DHT22;19359;51.402;6.778;2023-02-04T06:33:17;6.60;99.90
7784;DHT22;19359;51.402;6.778;2023-02-04T06:38:13;6.60;99.90
7784;DHT22;19359;51.402;6.778;2023-02-04T06:40:40;6.60;99.90
7784;DHT22;19359;51.402;6.778;2023-02-04T06:43:08;6.60;99.90
7784;DHT22;19359;51.402;6.778;2023-02-04T06:45:35;6.50;99.90
7784;DHT22;19359;51.402;6.778;2023-02-04T06:48:01;6.50;99.90
7784;DHT22;19359;51.402;6.778;2023-02-04T06:52:55;6.60;99.90
7784;DHT22;19359;51.402;6.778;2023-02-04T06:55:22;6.50;99.90
7784;DHT22;19359;51.402;6.778;2023-02-04T06:57:49;6.40;99.90
7784;DHT22;19359;51.402;6.778;2023-02-04T07:02:44;6.30;99.90
7784;DHT22;19359;51.402;6.778;2023-02-04T07:05:11;6.40;99.90
7784;DHT22;19359;51.402;6.778;2023-02-04T07:07:38;6.40;99.90
7784;DHT22;19359;51.402;6.778;2023-02-04T07:10:05;6.40;99.90
7784;DHT22;19359;51.402;6.778;2023-02-04T07:12:32;6.20;99.90
7784;DHT22;19359;51.402;6.778;2023-02-04T07:14:59;6.40;99.90
7784;DHT22;19359;51.402;6.778;2023-02-04T07:17:27;6.30;99.90
7784;DHT22;19359;51.402;6.778;2023-02-04T07:19:54;6.40;99.90
7784;DHT22;19359;51.402;6.778;2023-02-04T07:22:20;6.50;99.90
7784;DHT22;19359;51.402;6.778;2023-02-04T07:24:47;6.50;99.90
7784;DHT22;19359;51.402;6.778;2023-02-04T07:27:14;6.30;99.90
7784;DHT22;19359;51.402;6.778;2023-02-04T07:29:40;6.50;99.90
7784;DHT22;19359;51.402;6.778;2023-02-04T07:32:07;6.30;99.90
7784;DHT22;19359;51.402;6.778;2023-02-04T07:34:35;6.40;99.90
7784;DHT22;19359;51.402;6.778;2023-02-04T07:37:02;6.40;99.90
7784;DHT22;19359;51.402;6.778;2023-02-04T07:39:29;6.50;99.90
7784;DHT22;19359;51.402;6.778;2023-02-04T07:41:55;6.30;99.90
7784;DHT22;19359;51.402;6.778;2023-02-04T07:44:22;6.40;99.90
7784;DHT22;19359;51.402;6.778;2023-02-04T07:46:49;6.40;99.90
7784;DHT22;19359;51.402;6.778;2023-02-04T07:49:15;6.50;99.90
7784;DHT22;19359;51.402;6.778;2023-02-04T07:51:43;6.50;99.90
7784;DHT22;19359;51.402;6.778;2023-02-04T07:54:10;6.50;99.90
7784;DHT22;19359;51.402;6.778;2023-02-04T07:56:37;6.50;99.90
7784;DHT22;19359;51.402;6.778;2023-02-04T07:59:04;6.60;99.90
7784;DHT22;19359;51.402;6.778;2023-02-04T08:01:30;6.80;99.90
7784;DHT22;19359;51.402;6.778;2023-02-04T08:03:57;6.70;99.90
7784;DHT22;19359;51.402;6.778;2023-02-04T08:06:24;6.70;99.90
7784;DHT22;19359;51.402;6.778;2023-02-04T08:08:52;6.70;99.90
7784;DHT22;19359;51.402;6.778;2023-02-04T08:11:19;6.80;99.90
7784;DHT22;19359;51.402;6.778;2023-02-04T08:13:45;6.80;99.90
7784;DHT22;19359;51.402;6.778;2023-02-04T08:16:12;7.00;99.90
7784;DHT22;19359;51.402;6.778;2023-02-04T08:18:39;7.00;99.90
7784;DHT22;19359;51.402;6.778;2023-02-04T08:21:05;7.00;99.90
7784;DHT22;19359;51.402;6.778;2023-02-04T08:23:32;7.00;99.90
7784;DHT22;19359;51.402;6.778;2023-02-04T08:26:00;7.00;99.90
7784;DHT22;19359;51.402;6.778;2023-02-04T08:28:27;7.00;99.90
7784;DHT22;19359;51.402;6.778;2023-02-04T08:30:54;7.20;99.90
7784;DHT22;19359;51.402;6.778;2023-02-04T08:33:21;7.30;99.90
7784;DHT22;19359;51.402;6.778;2023-02-04T08:35:48;7.10;99.90
7784;DHT22;19359;51.402;6.778;2023-02-04T08:38:14;7.20;99.90
7784;DHT22;19359;51.402;6.778;2023-02-04T08:40:41;7.20;99.90
7784;DHT22;19359;51.402;6.778;2023-02-04T08:43:10;7.30;99.90
7784;DHT22;19359;51.402;6.778;2023-02-04T08:45:36;7.40;99.90
7784;DHT22;19359;51.402;6.778;2023-02-04T08:48:03;7.30;98.90
7784;DHT22;19359;51.402;6.778;2023-02-04T08:52:57;7.30;97.70
7784;DHT22;19359;51.402;6.778;2023-02-04T08:55:24;7.20;99.90
7784;DHT22;19359;51.402;6.778;2023-02-04T08:57:51;7.40;97.70
7784;DHT22;19359;51.402;6.778;2023-02-04T09:00:19;7.60;99.90
7784;DHT22;19359;51.402;6.778;2023-02-04T09:02:46;7.40;94.80
7784;DHT22;19359;51.402;6.778;2023-02-04T09:05:13;7.40;95.10
7784;DHT22;19359;51.402;6.778;2023-02-04T09:07:40;7.40;99.90
7784;DHT22;19359;51.402;6.778;2023-02-04T09:10:07;7.30;99.90
7784;DHT22;19359;51.402;6.778;2023-02-04T09:12:34;7.50;93.80
7784;DHT22;19359;51.402;6.778;2023-02-04T09:15:01;7.70;99.90
7784;DHT22;19359;51.402;6.778;2023-02-04T09:17:29;7.60;94.50
7784;DHT22;19359;51.402;6.778;2023-02-04T09:19:56;7.80;94.60
7784;DHT22;19359;51.402;6.778;2023-02-04T09:22:23;7.80;99.60
7784;DHT22;19359;51.402;6.778;2023-02-04T09:24:49;7.80;97.90
7784;DHT22;19359;51.402;6.778;2023-02-04T09:27:16;7.70;99.10
7784;DHT22;19359;51.402;6.778;2023-02-04T09:29:44;8.00;98.40
7784;DHT22;19359;51.402;6.778;2023-02-04T09:32:10;7.80;96.80
7784;DHT22;19359;51.402;6.778;2023-02-04T09:34:39;8.10;86.30
7784;DHT22;19359;51.402;6.778;2023-02-04T09:37:05;8.20;95.00
7784;DHT22;19359;51.402;6.778;2023-02-04T09:39:32;8.10;81.20
7784;DHT22;19359;51.402;6.778;2023-02-04T09:41:59;8.20;92.70
7784;DHT22;19359;51.402;6.778;2023-02-04T09:44:27;8.30;92.50
7784;DHT22;19359;51.402;6.778;2023-02-04T09:46:56;8.20;93.90
7784;DHT22;19359;51.402;6.778;2023-02-04T09:49:24;8.40;92.90
7784;DHT22;19359;51.402;6.778;2023-02-04T09:51:53;8.30;70.20
7784;DHT22;19359;51.402;6.778;2023-02-04T09:54:21;8.30;74.30
7784;DHT22;19359;51.402;6.778;2023-02-04T09:56:49;8.60;92.30
7784;DHT22;19359;51.402;6.778;2023-02-04T09:59:18;8.10;91.70
7784;DHT22;19359;51.402;6.778;2023-02-04T10:01:45;8.70;72.60
7784;DHT22;19359;51.402;6.778;2023-02-04T10:04:14;8.80;87.70
7784;DHT22;19359;51.402;6.778;2023-02-04T10:06:41;8.70;83.50
7784;DHT22;19359;51.402;6.778;2023-02-04T10:09:10;8.90;82.40
7784;DHT22;19359;51.402;6.778;2023-02-04T10:11:38;8.80;82.40
7784;DHT22;19359;51.402;6.778;2023-02-04T10:14:10;8.90;83.00
7784;DHT22;19359;51.402;6.778;2023-02-04T10:16:39;8.70;83.00
7784;DHT22;19359;51.402;6.778;2023-02-04T10:19:12;8.70;59.90
7784;DHT22;19359;51.402;6.778;2023-02-04T10:21:39;8.60;79.30
7784;DHT22;19359;51.402;6.778;2023-02-04T10:24:12;8.50;79.80
7784;DHT22;19359;51.402;6.778;2023-02-04T10:26:39;8.70;80.60
7784;DHT22;19359;51.402;6.778;2023-02-04T10:29:11;8.50;59.10
7784;DHT22;19359;51.402;6.778;2023-02-04T10:31:40;8.40;84.80
7784;DHT22;19359;51.402;6.778;2023-02-04T10:34:11;8.40;76.80
7784;DHT22;19359;51.402;6.778;2023-02-04T10:36:40;8.80;87.00
7784;DHT22;19359;51.402;6.778;2023-02-04T10:39:12;8.70;80.60
7784;DHT22;19359;51.402;6.778;2023-02-04T10:41:45;9.00;85.60
7784;DHT22;19359;51.402;6.778;2023-02-04T10:44:13;8.50;65.10
7784;DHT22;19359;51.402;6.778;2023-02-04T10:46:40;8.40;68.50
7784;DHT22;19359;51.402;6.778;2023-02-04T10:49:17;8.60;88.50
7784;DHT22;19359;51.402;6.778;2023-02-04T10:51:45;8.70;67.10
7784;DHT22;19359;51.402;6.778;2023-02-04T10:54:13;8.50;66.10
7784;DHT22;19359;51.402;6.778;2023-02-04T10:56:56;8.60;86.40
7784;DHT22;19359;51.402;6.778;2023-02-04T10:59:25;9.10;86.50
7784;DHT22;19359;51.402;6.778;2023-02-04T11:01:53;9.10;67.10
7784;DHT22;19359;51.402;6.778;2023-02-04T11:04:20;9.30;53.50
7784;DHT22;19359;51.402;6.778;2023-02-04T11:06:47;9.00;68.30
7784;DHT22;19359;51.402;6.778;2023-02-04T11:09:16;9.10;54.20
7784;DHT22;19359;51.402;6.778;2023-02-04T11:14:27;9.10;70.50
7784;DHT22;19359;51.402;6.778;2023-02-04T11:16:56;9.10;72.70
7784;DHT22;19359;51.402;6.778;2023-02-04T11:19:35;9.00;51.90
7784;DHT22;19359;51.402;6.778;2023-02-04T11:22:20;9.00;71.00
7784;DHT22;19359;51.402;6.778;2023-02-04T11:24:49;9.10;52.30
7784;DHT22;19359;51.402;6.778;2023-02-04T11:27:22;9.30;49.80
7784;DHT22;19359;51.402;6.778;2023-02-04T11:29:49;9.30;63.50
7784;DHT22;19359;51.402;6.778;2023-02-04T11:32:31;9.50;64.10
7784;DHT22;19359;51.402;6.778;2023-02-04T11:35:22;9.40;45.60
7784;DHT22;19359;51.402;6.778;2023-02-04T11:37:49;9.50;44.10
7784;DHT22;19359;51.402;6.778;2023-02-04T11:40:23;9.60;56.00
7784;DHT22;19359;51.402;6.778;2023-02-04T11:42:58;9.30;59.80
7784;DHT22;19359;51.402;6.778;2023-02-04T11:45:29;9.50;56.50
7784;DHT22;19359;51.402;6.778;2023-02-04T11:47:57;9.50;56.60
7784;DHT22;19359;51.402;6.778;2023-02-04T11:50:27;9.60;51.90
7784;DHT22;19359;51.402;6.778;2023-02-04T11:52:55;9.50;51.50
7784;DHT22;19359;51.402;6.778;2023-02-04T11:55:24;9.50;37.80
7784;DHT22;19359;51.402;6.778;2023-02-04T11:57:53;9.70;40.60
7784;DHT22;19359;51.402;6.778;2023-02-04T12:02:49;9.90;50.90
7784;DHT22;19359;51.402;6.778;2023-02-04T12:05:18;10.00;28.20
7784;DHT22;19359;51.402;6.778;2023-02-04T12:07:46;9.90;46.60
7784;DHT22;19359;51.402;6.778;2023-02-04T12:10:22;10.10;38.90
7784;DHT22;19359;51.402;6.778;2023-02-04T12:12:52;10.10;37.00
7784;DHT22;19359;51.402;6.778;2023-02-04T12:15:23;10.10;19.80
7784;DHT22;19359;51.402;6.778;2023-02-04T12:18:01;10.20;21.70
7784;DHT22;19359;51.402;6.778;2023-02-04T12:20:28;10.30;21.60
7784;DHT22;19359;51.402;6.778;2023-02-04T12:22:55;10.50;17.00
7784;DHT22;19359;51.402;6.778;2023-02-04T12:25:22;10.40;10.20
7784;DHT22;19359;51.402;6.778;2023-02-04T12:30:20;10.80;11.60
7784;DHT22;19359;51.402;6.778;2023-02-04T12:32:47;10.20;12.10
7784;DHT22;19359;51.402;6.778;2023-02-04T12:35:14;10.30;27.00
7784;DHT22;19359;51.402;6.778;2023-02-04T12:37:41;10.20;14.90
7784;DHT22;19359;51.402;6.778;2023-02-04T12:40:09;10.30;17.00
7784;DHT22;19359;51.402;6.778;2023-02-04T12:42:36;10.40;19.10
7784;DHT22;19359;51.402;6.778;2023-02-04T12:45:03;10.40;19.00
7784;DHT22;19359;51.402;6.778;2023-02-04T12:47:31;10.40;7.20
7784;DHT22;19359;51.402;6.778;2023-02-04T12:49:58;10.40;7.20
7784;DHT22;19359;51.402;6.778;2023-02-04T12:52:25;10.30;11.90
7784;DHT22;19359;51.402;6.778;2023-02-04T12:54:52;10.40;22.80
7784;DHT22;19359;51.402;6.778;2023-02-04T12:57:18;10.50;25.30
7784;DHT22;19359;51.402;6.778;2023-02-04T12:59:45;10.30;25.20
7784;DHT22;19359;51.402;6.778;2023-02-04T13:02:13;9.90;24.20
7784;DHT22;19359;51.402;6.778;2023-02-04T13:04:41;9.80;23.90
7784;DHT22;19359;51.402;6.778;2023-02-04T13:09:35;10.00;25.90
7784;DHT22;19359;51.402;6.778;2023-02-04T13:12:02;9.90;9.10
7784;DHT22;19359;51.402;6.778;2023-02-04T13:16:57;10.40;18.10
7784;DHT22;19359;51.402;6.778;2023-02-04T13:19:24;9.60;20.00
7784;DHT22;19359;51.402;6.778;2023-02-04T13:21:52;9.80;20.90
7784;DHT22;19359;51.402;6.778;2023-02-04T13:24:19;9.80;19.40
7784;DHT22;19359;51.402;6.778;2023-02-04T13:26:46;10.00;21.50
7784;DHT22;19359;51.402;6.778;2023-02-04T13:29:12;9.70;15.60
7784;DHT22;19359;51.402;6.778;2023-02-04T13:31:39;9.80;14.50
7784;DHT22;19359;51.402;6.778;2023-02-04T13:34:06;9.80;16.50
7784;DHT22;19359;51.402;6.778;2023-02-04T13:36:33;9.80;1.00
7784;DHT22;19359;51.402;6.778;2023-02-04T13:39:01;9.90;1.00
7784;DHT22;19359;51.402;6.778;2023-02-04T13:41:28;9.80;1.00
7784;DHT22;19359;51.402;6.778;2023-02-04T13:43:55;9.80;14.50
7784;DHT22;19359;51.402;6.778;2023-02-04T13:46:23;9.60;17.20
7784;DHT22;19359;51.402;6.778;2023-02-04T13:51:17;9.60;21.00
7784;DHT22;19359;51.402;6.778;2023-02-04T13:53:43;9.80;22.60
7784;DHT22;19359;51.402;6.778;2023-02-04T13:56:12;9.70;21.10
7784;DHT22;19359;51.402;6.778;2023-02-04T13:58:38;9.50;13.70
7784;DHT22;19359;51.402;6.778;2023-02-04T14:01:08;9.70;11.80
7784;DHT22;19359;51.402;6.778;2023-02-04T14:03:35;9.70;11.10
7784;DHT22;19359;51.402;6.778;2023-02-04T14:06:03;9.70;1.00
7784;DHT22;19359;51.402;6.778;2023-02-04T14:08:30;9.70;1.00
7784;DHT22;19359;51.402;6.778;2023-02-04T14:10:56;9.70;1.00
7784;DHT22;19359;51.402;6.778;2023-02-04T14:13:24;9.70;1.00
7784;DHT22;19359;51.402;6.778;2023-02-04T14:18:18;9.80;1.00
7784;DHT22;19359;51.402;6.778;2023-02-04T14:20:46;10.00;1.00
7784;DHT22;19359;51.402;6.778;2023-02-04T14:23:12;10.00;1.00
7784;DHT22;19359;51.402;6.778;2023-02-04T14:25:39;10.00;1.00
7784;DHT22;19359;51.402;6.778;2023-02-04T14:28:06;9.90;1.00
7784;DHT22;19359;51.402;6.778;2023-02-04T14:30:34;9.80;1.00
7784;DHT22;19359;51.402;6.778;2023-02-04T14:33:02;9.80;1.00
7784;DHT22;19359;51.402;6.778;2023-02-04T14:35:29;9.80;1.90
7784;DHT22;19359;51.402;6.778;2023-02-04T14:37:56;9.80;3.40
7784;DHT22;19359;51.402;6.778;2023-02-04T14:40:23;9.70;2.00
7784;DHT22;19359;51.402;6.778;2023-02-04T14:42:50;9.90;20.70
7784;DHT22;19359;51.402;6.778;2023-02-04T14:45:17;9.80;13.00
7784;DHT22;19359;51.402;6.778;2023-02-04T14:47:45;9.70;13.30
7784;DHT22;19359;51.402;6.778;2023-02-04T14:50:14;10.00;13.10
7784;DHT22;19359;51.402;6.778;2023-02-04T14:52:41;10.00;13.10
7784;DHT22;19359;51.402;6.778;2023-02-04T14:55:08;9.80;15.20
7784;DHT22;19359;51.402;6.778;2023-02-04T14:57:36;10.10;11.30
7784;DHT22;19359;51.402;6.778;2023-02-04T15:00:03;10.10;10.40
7784;DHT22;19359;51.402;6.778;2023-02-04T15:02:31;9.80;6.40
7784;DHT22;19359;51.402;6.778;2023-02-04T15:04:59;9.90;1.00
7784;DHT22;19359;51.402;6.778;2023-02-04T15:07:26;9.80;1.00
7784;DHT22;19359;51.402;6.778;2023-02-04T15:09:52;9.90;1.00
7784;DHT22;19359;51.402;6.778;2023-02-04T15:12:19;9.70;1.00
7784;DHT22;19359;51.402;6.778;2023-02-04T15:14:46;9.80;1.00
7784;DHT22;19359;51.402;6.778;2023-02-04T15:17:13;9.70;1.00
7784;DHT22;19359;51.402;6.778;2023-02-04T15:19:40;9.80;1.00
7784;DHT22;19359;51.402;6.778;2023-02-04T15:22:08;9.80;1.00
7784;DHT22;19359;51.402;6.778;2023-02-04T15:24:35;9.30;1.00
7784;DHT22;19359;51.402;6.778;2023-02-04T15:27:02;9.50;1.00
7784;DHT22;19359;51.402;6.778;2023-02-04T15:29:28;9.10;1.00
7784;DHT22;19359;51.402;6.778;2023-02-04T15:31:56;9.50;1.00
7784;DHT22;19359;51.402;6.778;2023-02-04T15:34:22;9.30;1.00
7784;DHT22;19359;51.402;6.778;2023-02-04T15:36:49;8.90;1.00
7784;DHT22;19359;51.402;6.778;2023-02-04T15:39:17;9.20;1.00
7784;DHT22;19359;51.402;6.778;2023-02-04T15:41:44;9.30;2.10
7784;DHT22;19359;51.402;6.778;2023-02-04T15:44:11;9.00;1.00
7784;DHT22;19359;51.402;6.778;2023-02-04T15:46:38;9.10;1.00
7784;DHT22;19359;51.402;6.778;2023-02-04T15:49:04;9.10;1.00
7784;DHT22;19359;51.402;6.778;2023-02-04T15:51:31;8.90;1.00
7784;DHT22;19359;51.402;6.778;2023-02-04T15:53:58;8.90;1.00
7784;DHT22;19359;51.402;6.778;2023-02-04T15:56:26;8.90;4.70
7784;DHT22;19359;51.402;6.778;2023-02-04T15:58:53;8.70;5.90
7784;DHT22;19359;51.402;6.778;2023-02-04T16:01:21;8.60;1.00
7784;DHT22;19359;51.402;6.778;2023-02-04T16:03:47;8.40;2.70
7784;DHT22;19359;51.402;6.778;2023-02-04T16:06:15;8.30;24.70
7784;DHT22;19359;51.402;6.778;2023-02-04T16:08:42;8.00;13.10
7784;DHT22;19359;51.402;6.778;2023-02-04T16:11:09;7.80;33.70
7784;DHT22;19359;51.402;6.778;2023-02-04T16:13:37;7.80;38.70
7784;DHT22;19359;51.402;6.778;2023-02-04T16:16:04;7.60;22.90
7784;DHT22;19359;51.402;6.778;2023-02-04T16:18:31;8.40;25.00
7784;DHT22;19359;51.402;6.778;2023-02-04T16:20:57;7.50;27.90
7784;DHT22;19359;51.402;6.778;2023-02-04T16:23:24;7.10;52.10
7784;DHT22;19359;51.402;6.778;2023-02-04T16:25:51;7.10;34.00
7784;DHT22;19359;51.402;6.778;2023-02-04T16:28:18;7.00;36.90
7784;DHT22;19359;51.402;6.778;2023-02-04T16:30:46;7.10;59.90
7784;DHT22;19359;51.402;6.778;2023-02-04T16:35:56;6.80;42.20
7784;DHT22;19359;51.402;6.778;2023-02-04T16:38:23;6.70;48.10
7784;DHT22;19359;51.402;6.778;2023-02-04T16:40:50;6.50;68.50
7784;DHT22;19359;51.402;6.778;2023-02-04T16:43:17;7.00;71.40
7784;DHT22;19359;51.402;6.778;2023-02-04T16:45:46;6.70;50.80
7784;DHT22;19359;51.402;6.778;2023-02-04T16:50:39;6.20;73.10
7784;DHT22;19359;51.402;6.778;2023-02-04T16:53:06;6.70;74.70
7784;DHT22;19359;51.402;6.778;2023-02-04T16:55:35;6.60;52.90
7784;DHT22;19359;51.402;6.778;2023-02-04T16:58:01;6.60;76.10
7784;DHT22;19359;51.402;6.778;2023-02-04T17:00:28;6.70;54.40
7784;DHT22;19359;51.402;6.778;2023-02-04T17:02:56;6.40;77.40
7784;DHT22;19359;51.402;6.778;2023-02-04T17:05:23;6.90;79.30
7784;DHT22;19359;51.402;6.778;2023-02-04T17:07:49;6.70;79.60
7784;DHT22;19359;51.402;6.778;2023-02-04T17:10:16;6.80;81.20